Etusivu
METAR-TAF:

METAR-TAF

Lentoasemat :

Hohhot, Kiina

Leveyspiiri: 40-49N, Pituuspiiri: 111-41E, korkeus merenpinnasta: 1065 m

Tämänhetkinen sää

Tämä raportti tehtiin 29 minuuttia sitten, kello 13.00 UTC
Tuuli 14 kn luoteesta
Lämpötila 20°C
Kosteus 30%
Ilmanpaine 1005 hPa
Näkyvyys: 5000 m
hiekkaa,

METAR: ZBHH 221300Z 31007MPS 5000 SA NSC 20/02 Q1005 NOSIG

Aika: 21:29 (13:29 UTC)

Sääennuste

Tämä raportti tehtiin 4 tuntia ja 22 minuuttia sitten, kello 09.07 UTC
Ennuste voimassa 22. päivästä klo 12 UTC - 23. päivään klo 12 UTC
Tuuli 14 kn pohjoisen/luoteesta puuskistuen 23 kn:hen
Näkyvyys 10 km tai enemmän
Muutamia pilviä 4000 ft:n korkeudessa
Ajoittain
22. päivästä klo 12 UTC - 22. päivään klo 18 UTC
Näkyvyys: 2500 m
hiekkaa
Tulossa
22. päivästä klo 16 UTC - 22. päivään klo 18 UTC
Tuuli 8 kn pohjoisesta/koillisesta

TAF: ZBHH 220907Z 2212/2312 33007G12MPS 9999 FEW040 TX24/2307Z TN12/2222Z TEMPO 2212/2218 2500 SA BECMG 2216/2218 03004MPS

Säähavainnot ja -ennusteet yli 4000 lentoasemalta (METAR- ja TAF-raportit).

Käytössä olevat sääasemat on merkitty karttaan keltaisilla ja punaisilla pisteillä.

Aseta hiiri pisteen päälle nähdäksesi sääaseman nimen.

Klikkaa sitten nähdäksesi säähavainnot ja -ennusteet.

Kartan vaihtaminen: klikkaa mustalla rastilla varustettuja vihreitä pisteitä, niin voit zoomata sisään; viivalla varustettua vihreää pistettä, niin voit zoomata ulos tai vihreitä nuolia, niin pääset viereisille kartoille.


METAR-TAF: